createdAt,value
2017-10-10T00:00:28.184Z,9.30
2017-10-10T00:02:56.980Z,9.30
2017-10-10T00:05:26.673Z,9.30
2017-10-10T00:07:54.748Z,9.30
2017-10-10T00:10:23.553Z,9.30
2017-10-10T00:12:52.349Z,9.40
2017-10-10T00:15:20.384Z,9.40
2017-10-10T00:17:48.444Z,9.30
2017-10-10T00:20:17.372Z,9.30
2017-10-10T00:22:46.292Z,9.30
2017-10-10T00:25:15.327Z,9.30
2017-10-10T00:27:43.364Z,9.40
2017-10-10T00:30:11.392Z,9.40
2017-10-10T00:32:40.192Z,9.30
2017-10-10T00:35:08.232Z,9.30
2017-10-10T00:37:36.272Z,9.40
2017-10-10T00:40:04.291Z,9.40
2017-10-10T00:42:40.207Z,9.40
2017-10-10T00:45:09.220Z,9.30
2017-10-10T00:47:37.255Z,9.30
2017-10-10T00:50:05.291Z,9.30
2017-10-10T00:52:33.321Z,9.30
2017-10-10T00:55:01.341Z,9.30
2017-10-10T00:57:50.231Z,9.30
2017-10-10T01:00:19.152Z,9.30
2017-10-10T01:02:49.164Z,9.30
2017-10-10T01:05:17.188Z,9.40
2017-10-10T01:07:46.211Z,9.30
2017-10-10T01:10:14.259Z,9.40
2017-10-10T01:12:42.327Z,9.40
2017-10-10T01:15:10.331Z,9.40
2017-10-10T01:17:38.376Z,9.40
2017-10-10T01:20:06.404Z,9.50
2017-10-10T01:22:34.440Z,9.50
2017-10-10T01:25:02.479Z,9.50
2017-10-10T01:27:31.291Z,9.50
2017-10-10T01:29:59.304Z,9.50
2017-10-10T01:32:28.264Z,9.50
2017-10-10T01:34:57.243Z,9.50
2017-10-10T01:37:26.227Z,9.50
2017-10-10T01:39:54.280Z,9.50
2017-10-10T01:42:23.065Z,9.50
2017-10-10T01:44:56.507Z,9.40
2017-10-10T01:47:25.427Z,9.40
2017-10-10T01:49:53.455Z,9.40
2017-10-10T01:52:24.280Z,9.50
2017-10-10T01:54:55.343Z,9.40
2017-10-10T01:57:23.375Z,9.40
2017-10-10T01:59:51.517Z,9.40
2017-10-10T02:02:19.551Z,9.40
2017-10-10T02:04:47.555Z,9.40
2017-10-10T02:07:15.583Z,9.40
2017-10-10T02:09:44.576Z,9.40
2017-10-10T02:12:13.556Z,9.40
2017-10-10T02:14:41.587Z,9.40
2017-10-10T02:17:09.603Z,9.40
2017-10-10T02:19:37.623Z,9.40
2017-10-10T02:22:05.675Z,9.40
2017-10-10T02:24:33.703Z,9.50
2017-10-10T02:27:01.727Z,9.50
2017-10-10T02:29:29.771Z,9.50
2017-10-10T02:31:58.563Z,9.40
2017-10-10T02:34:27.346Z,9.50
2017-10-10T02:36:56.256Z,9.50
2017-10-10T02:39:24.275Z,9.50
2017-10-10T02:41:52.338Z,9.40
2017-10-10T02:44:20.367Z,9.40
2017-10-10T02:46:48.434Z,9.40
2017-10-10T02:49:20.159Z,9.40
2017-10-10T02:51:48.954Z,9.50
2017-10-10T02:54:17.739Z,9.50
2017-10-10T02:56:46.583Z,9.50
2017-10-10T02:59:15.606Z,9.50
2017-10-10T03:01:43.626Z,9.50
2017-10-10T03:04:11.763Z,9.50
2017-10-10T03:06:40.582Z,9.50
2017-10-10T03:09:08.619Z,9.50
2017-10-10T03:11:36.643Z,9.50
2017-10-10T03:14:04.683Z,9.50
2017-10-10T03:16:33.462Z,9.50
2017-10-10T03:19:03.262Z,9.50
2017-10-10T03:21:32.106Z,9.50
2017-10-10T03:24:00.142Z,9.50
2017-10-10T03:26:28.274Z,9.60
2017-10-10T03:28:56.306Z,9.50
2017-10-10T03:31:24.326Z,9.50
2017-10-10T03:33:53.310Z,9.50
2017-10-10T03:36:21.328Z,9.50
2017-10-10T03:38:49.350Z,9.50
2017-10-10T03:41:17.387Z,9.50
2017-10-10T03:43:48.650Z,9.50
2017-10-10T03:46:17.673Z,9.50
2017-10-10T03:48:45.684Z,9.50
2017-10-10T03:51:13.706Z,9.50
2017-10-10T03:53:42.526Z,9.50
2017-10-10T03:56:10.543Z,9.50
2017-10-10T03:58:38.574Z,9.50
2017-10-10T04:01:06.610Z,9.50
2017-10-10T04:03:35.394Z,9.40
2017-10-10T04:06:04.179Z,9.40
2017-10-10T04:08:32.978Z,9.40
2017-10-10T04:11:01.774Z,9.40
2017-10-10T04:13:29.794Z,9.40
2017-10-10T04:15:57.830Z,9.40
2017-10-10T04:18:25.846Z,9.40
2017-10-10T04:20:54.829Z,9.40
2017-10-10T04:23:22.870Z,9.40
2017-10-10T04:25:51.086Z,9.40
2017-10-10T04:28:19.118Z,9.40
2017-10-10T04:30:48.171Z,9.40
2017-10-10T04:33:16.190Z,9.30
2017-10-10T04:35:44.209Z,9.30
2017-10-10T04:38:12.254Z,9.40
2017-10-10T04:40:44.209Z,9.40
2017-10-10T04:43:12.254Z,9.40
2017-10-10T04:45:42.222Z,9.40
2017-10-10T04:48:11.022Z,9.40
2017-10-10T04:50:39.826Z,9.40
2017-10-10T04:53:07.854Z,9.40
2017-10-10T04:55:35.881Z,9.40
2017-10-10T04:58:03.930Z,9.40
2017-10-10T05:00:31.946Z,9.40
2017-10-10T05:03:00.957Z,9.40
2017-10-10T05:05:29.974Z,9.40
2017-10-10T05:07:57.969Z,9.40
2017-10-10T05:10:26.002Z,9.40
2017-10-10T05:12:54.809Z,9.30
2017-10-10T05:15:22.843Z,9.30
2017-10-10T05:17:51.826Z,9.20
2017-10-10T05:20:19.883Z,9.20
2017-10-10T05:22:48.798Z,9.20
2017-10-10T05:25:17.790Z,9.20
2017-10-10T05:27:46.321Z,9.20
2017-10-10T05:30:14.353Z,9.20
2017-10-10T05:32:43.180Z,9.20
2017-10-10T05:35:15.357Z,9.20
2017-10-10T05:37:43.381Z,9.20
2017-10-10T05:40:12.178Z,9.20
2017-10-10T05:42:41.973Z,9.30
2017-10-10T05:45:10.889Z,9.30
2017-10-10T05:47:38.918Z,9.30
2017-10-10T05:50:07.937Z,9.30
2017-10-10T05:52:36.742Z,9.30
2017-10-10T05:55:04.757Z,9.30
2017-10-10T05:57:32.805Z,9.30
2017-10-10T06:00:01.835Z,9.30
2017-10-10T06:02:29.865Z,9.30
2017-10-10T06:04:57.953Z,9.30
2017-10-10T06:07:25.996Z,9.30
2017-10-10T06:09:54.033Z,9.30
2017-10-10T06:12:22.844Z,9.40
2017-10-10T06:14:51.748Z,9.30
2017-10-10T06:17:19.783Z,9.40
2017-10-10T06:19:48.582Z,9.60
2017-10-10T06:22:16.614Z,9.50
2017-10-10T06:24:46.676Z,9.60
2017-10-10T06:27:14.725Z,9.70
2017-10-10T06:29:47.608Z,9.70
2017-10-10T06:32:17.516Z,9.70
2017-10-10T06:34:46.316Z,9.80
2017-10-10T06:37:16.093Z,9.90
2017-10-10T06:39:44.337Z,9.90
2017-10-10T06:42:12.365Z,10.00
2017-10-10T06:44:42.196Z,10.00
2017-10-10T06:47:10.236Z,10.00
2017-10-10T06:49:49.157Z,10.30
2017-10-10T06:52:27.072Z,10.20
2017-10-10T06:57:18.059Z,10.40
2017-10-10T07:02:28.649Z,10.40
2017-10-10T07:04:57.748Z,10.50
2017-10-10T07:07:25.796Z,10.60
2017-10-10T07:09:55.848Z,10.70
2017-10-10T07:12:24.673Z,11.00
2017-10-10T07:14:52.700Z,11.00
2017-10-10T07:17:20.724Z,11.10
2017-10-10T07:19:49.885Z,11.30
2017-10-10T07:22:20.589Z,11.30
2017-10-10T07:24:49.593Z,11.30
2017-10-10T07:27:18.380Z,11.00
2017-10-10T07:29:46.436Z,11.00
2017-10-10T07:32:15.464Z,10.90
2017-10-10T07:34:44.252Z,10.90
2017-10-10T07:37:14.028Z,10.80
2017-10-10T07:39:44.057Z,10.80
2017-10-10T07:42:12.165Z,10.80
2017-10-10T07:44:41.108Z,10.80
2017-10-10T07:47:11.144Z,10.80
2017-10-10T07:49:40.942Z,10.90
2017-10-10T07:52:08.972Z,10.90
2017-10-10T07:54:38.024Z,10.90
2017-10-10T07:57:06.812Z,11.00
2017-10-10T07:59:36.596Z,11.00
2017-10-10T08:02:04.648Z,11.00
2017-10-10T08:04:32.680Z,11.10
2017-10-10T08:07:01.652Z,11.20
2017-10-10T08:09:30.476Z,11.40
2017-10-10T08:11:58.507Z,11.40
2017-10-10T08:14:28.512Z,11.40
2017-10-10T08:17:00.688Z,11.40
2017-10-10T08:19:28.716Z,11.50
2017-10-10T08:21:56.732Z,11.60
2017-10-10T08:24:26.544Z,11.60
2017-10-10T08:26:55.540Z,11.60
2017-10-10T08:29:23.551Z,11.70
2017-10-10T08:31:53.540Z,11.80
2017-10-10T08:34:22.316Z,12.10
2017-10-10T08:36:54.158Z,12.40
2017-10-10T08:39:22.180Z,12.40
2017-10-10T08:41:50.192Z,12.50
2017-10-10T08:44:19.201Z,12.70
2017-10-10T08:46:47.216Z,12.80
2017-10-10T08:49:15.232Z,13.00
2017-10-10T08:51:43.272Z,13.10
2017-10-10T08:54:12.072Z,13.10
2017-10-10T08:56:40.096Z,13.10
2017-10-10T08:59:08.144Z,13.20
2017-10-10T09:01:36.924Z,13.60
2017-10-10T09:04:05.711Z,13.70
2017-10-10T09:06:34.508Z,13.60
2017-10-10T09:09:03.308Z,13.60
2017-10-10T09:11:31.335Z,13.60
2017-10-10T09:13:59.368Z,13.70
2017-10-10T09:16:27.401Z,13.80
2017-10-10T09:18:57.184Z,13.50
2017-10-10T09:21:25.208Z,13.50
2017-10-10T09:23:53.257Z,13.40
2017-10-10T09:26:23.044Z,13.60
2017-10-10T09:28:51.080Z,13.60
2017-10-10T09:31:19.112Z,13.80
2017-10-10T09:33:47.907Z,14.00
2017-10-10T09:36:16.715Z,13.90
2017-10-10T09:38:44.736Z,13.90
2017-10-10T09:41:14.740Z,14.20
2017-10-10T09:43:43.739Z,14.20
2017-10-10T09:46:13.731Z,14.20
2017-10-10T09:48:42.759Z,13.80
2017-10-10T09:51:10.780Z,13.90
2017-10-10T09:53:41.816Z,14.00
2017-10-10T09:56:09.859Z,14.00
2017-10-10T09:58:39.832Z,14.30
2017-10-10T10:01:07.859Z,14.60
2017-10-10T10:03:36.796Z,14.90
2017-10-10T10:06:04.846Z,15.10
2017-10-10T10:08:32.864Z,15.50
2017-10-10T10:11:02.755Z,16.10
2017-10-10T10:13:31.736Z,16.10
2017-10-10T10:15:59.771Z,16.20
2017-10-10T10:18:27.807Z,16.10
2017-10-10T10:20:58.319Z,15.60
2017-10-10T10:23:27.295Z,15.60
2017-10-10T10:25:55.340Z,15.10
2017-10-10T10:28:23.391Z,14.90
2017-10-10T10:30:52.130Z,14.90
2017-10-10T10:33:21.121Z,14.70
2017-10-10T10:35:49.135Z,15.10
2017-10-10T10:38:17.170Z,15.30
2017-10-10T10:40:46.156Z,15.30
2017-10-10T10:43:14.892Z,15.20
2017-10-10T10:45:43.912Z,15.00
2017-10-10T10:48:13.979Z,14.80
2017-10-10T10:50:42.014Z,14.70
2017-10-10T10:53:10.043Z,14.60
2017-10-10T10:55:38.099Z,14.50
2017-10-10T10:58:07.043Z,14.50
2017-10-10T11:00:35.055Z,14.30
2017-10-10T11:03:06.767Z,14.50
2017-10-10T11:05:34.782Z,14.30
2017-10-10T11:08:02.803Z,14.20
2017-10-10T11:10:30.827Z,14.50
2017-10-10T11:13:02.006Z,14.80
2017-10-10T11:15:31.227Z,14.80
2017-10-10T11:17:59.239Z,14.50
2017-10-10T11:20:28.183Z,14.00
2017-10-10T11:22:57.938Z,13.30
2017-10-10T11:25:25.978Z,13.30
2017-10-10T11:27:54.779Z,12.90
2017-10-10T11:30:23.603Z,12.90
2017-10-10T11:32:51.622Z,12.90
2017-10-10T11:35:20.598Z,12.80
2017-10-10T11:37:48.618Z,12.80
2017-10-10T11:40:17.567Z,12.70
2017-10-10T11:42:45.590Z,12.60
2017-10-10T11:45:14.638Z,12.60
2017-10-10T11:47:43.426Z,12.50
2017-10-10T11:50:12.226Z,12.50
2017-10-10T11:52:41.046Z,12.40
2017-10-10T11:55:09.067Z,12.40
2017-10-10T11:57:38.050Z,12.20
2017-10-10T12:00:06.098Z,12.20
2017-10-10T12:02:34.131Z,12.00
2017-10-10T12:05:02.152Z,12.00
2017-10-10T12:07:30.197Z,12.00
2017-10-10T12:09:58.216Z,11.90
2017-10-10T12:12:30.406Z,11.60
2017-10-10T12:14:59.158Z,11.50
2017-10-10T12:17:27.188Z,11.40
2017-10-10T12:19:55.234Z,11.30
2017-10-10T12:22:23.258Z,11.30
2017-10-10T12:24:52.247Z,11.30
2017-10-10T12:27:20.318Z,11.20
2017-10-10T12:29:49.314Z,11.20
2017-10-10T12:32:17.343Z,11.10
2017-10-10T12:34:45.382Z,11.10
2017-10-10T12:37:14.986Z,11.10
2017-10-10T12:39:44.042Z,11.20
2017-10-10T12:42:13.053Z,11.10
2017-10-10T12:44:41.074Z,11.10
2017-10-10T12:47:09.110Z,11.20
2017-10-10T12:49:37.933Z,11.20
2017-10-10T12:52:05.958Z,11.10
2017-10-10T12:54:35.418Z,11.10
2017-10-10T12:57:04.451Z,11.10
2017-10-10T12:59:33.430Z,11.20
2017-10-10T13:02:01.466Z,11.20
2017-10-10T13:04:29.506Z,11.20
2017-10-10T13:06:57.547Z,11.20
2017-10-10T13:09:25.577Z,11.20
2017-10-10T13:11:54.665Z,11.20
2017-10-10T13:14:22.698Z,11.10
2017-10-10T13:16:51.493Z,11.20
2017-10-10T13:19:20.302Z,11.20
2017-10-10T13:21:49.345Z,11.20
2017-10-10T13:24:17.388Z,11.20
2017-10-10T13:26:46.422Z,11.20
2017-10-10T13:29:14.453Z,11.20
2017-10-10T13:31:42.474Z,11.20
2017-10-10T13:34:11.309Z,11.20
2017-10-10T13:36:40.229Z,11.20
2017-10-10T13:39:08.261Z,11.20
2017-10-10T13:41:36.293Z,11.20
2017-10-10T13:44:06.278Z,11.30
2017-10-10T13:46:35.213Z,11.30
2017-10-10T13:49:03.253Z,11.30
2017-10-10T13:51:32.054Z,11.20
2017-10-10T13:54:00.857Z,11.30
2017-10-10T13:56:29.821Z,11.30
2017-10-10T13:58:59.621Z,11.50
2017-10-10T14:01:27.645Z,11.40
2017-10-10T14:03:55.689Z,11.50
2017-10-10T14:06:24.490Z,11.50
2017-10-10T14:08:52.509Z,11.50
2017-10-10T14:11:20.549Z,11.60
2017-10-10T14:13:49.577Z,11.50
2017-10-10T14:16:17.617Z,11.50
2017-10-10T14:18:45.670Z,11.50
2017-10-10T14:21:14.617Z,11.50
2017-10-10T14:23:42.637Z,11.40
2017-10-10T14:26:10.669Z,11.50
2017-10-10T14:28:38.701Z,11.50
2017-10-10T14:31:15.170Z,11.50
2017-10-10T14:33:46.836Z,11.50
2017-10-10T14:36:14.871Z,11.50
2017-10-10T14:38:42.884Z,11.50
2017-10-10T14:41:10.917Z,11.50
2017-10-10T14:43:39.953Z,11.50
2017-10-10T14:46:07.976Z,11.50
2017-10-10T14:48:36.000Z,11.50
2017-10-10T14:51:04.821Z,11.50
2017-10-10T14:53:33.761Z,11.40
2017-10-10T14:56:01.789Z,11.50
2017-10-10T14:58:29.832Z,11.50
2017-10-10T15:00:58.622Z,11.50
2017-10-10T15:03:28.321Z,11.60
2017-10-10T15:05:57.118Z,11.60
2017-10-10T15:08:26.889Z,11.60
2017-10-10T15:10:55.892Z,11.60
2017-10-10T15:13:24.892Z,11.60
2017-10-10T15:15:52.912Z,11.60
2017-10-10T15:18:20.940Z,11.60
2017-10-10T15:20:49.737Z,11.70
2017-10-10T15:23:18.524Z,11.70
2017-10-10T15:25:47.344Z,11.70
2017-10-10T15:28:17.316Z,11.60
2017-10-10T15:30:45.829Z,11.70
2017-10-10T15:33:14.773Z,11.60
2017-10-10T15:35:42.833Z,11.60
2017-10-10T15:38:10.860Z,11.60
2017-10-10T15:40:38.876Z,11.60
2017-10-10T15:43:07.876Z,11.60
2017-10-10T15:45:35.908Z,11.60
2017-10-10T15:48:03.936Z,11.60
2017-10-10T15:50:31.973Z,11.60
2017-10-10T15:53:00.000Z,11.60
2017-10-10T15:55:28.020Z,11.50
2017-10-10T15:57:57.024Z,11.60
2017-10-10T16:00:25.045Z,11.60
2017-10-10T16:02:53.076Z,11.50
2017-10-10T16:05:22.868Z,11.50
2017-10-10T16:07:50.896Z,11.50
2017-10-10T16:10:18.920Z,11.50
2017-10-10T16:12:46.952Z,11.50
2017-10-10T16:15:14.984Z,11.50
2017-10-10T16:17:43.004Z,11.60
2017-10-10T16:20:11.065Z,11.50
2017-10-10T16:22:39.100Z,11.50
2017-10-10T16:25:07.116Z,11.50
2017-10-10T16:27:35.155Z,11.50
2017-10-10T16:30:05.104Z,11.50
2017-10-10T16:32:36.568Z,11.50
2017-10-10T16:35:04.600Z,11.50
2017-10-10T16:37:32.628Z,11.50
2017-10-10T16:40:05.108Z,11.50
2017-10-10T16:42:34.901Z,11.50
2017-10-10T16:45:04.700Z,11.50
2017-10-10T16:47:33.696Z,11.50
2017-10-10T16:50:01.712Z,11.50
2017-10-10T16:52:29.751Z,11.50
2017-10-10T16:54:58.555Z,11.50
2017-10-10T16:57:26.587Z,11.50
2017-10-10T16:59:54.599Z,11.50
2017-10-10T17:02:24.572Z,11.50
2017-10-10T17:04:52.596Z,11.50
2017-10-10T17:07:20.636Z,11.50
2017-10-10T17:09:49.427Z,11.50
2017-10-10T17:12:18.240Z,11.50
2017-10-10T17:14:46.299Z,11.50
2017-10-10T17:17:14.342Z,11.50
2017-10-10T17:19:43.151Z,11.50
2017-10-10T17:22:12.940Z,11.50
2017-10-10T17:24:41.747Z,11.40
2017-10-10T17:27:10.526Z,11.50
2017-10-10T17:29:39.335Z,11.50
2017-10-10T17:32:07.367Z,11.50
2017-10-10T17:34:36.383Z,11.50
2017-10-10T17:37:04.405Z,11.50
2017-10-10T17:39:33.415Z,11.50
2017-10-10T17:42:01.431Z,11.50
2017-10-10T17:44:29.520Z,11.50
2017-10-10T17:46:57.523Z,11.60
2017-10-10T17:49:25.568Z,11.60
2017-10-10T17:51:53.607Z,11.60
2017-10-10T17:54:21.611Z,11.60
2017-10-10T17:56:49.639Z,11.60
2017-10-10T17:59:17.680Z,11.60
2017-10-10T18:01:46.647Z,11.70
2017-10-10T18:04:14.681Z,11.70
2017-10-10T18:06:43.640Z,11.70
2017-10-10T18:09:13.424Z,11.60
2017-10-10T18:11:41.451Z,11.60
2017-10-10T18:14:09.483Z,11.70
2017-10-10T18:16:37.503Z,11.70
2017-10-10T18:19:06.523Z,11.70
2017-10-10T18:21:34.552Z,11.70
2017-10-10T18:24:03.487Z,11.60
2017-10-10T18:26:31.510Z,11.60
2017-10-10T18:29:01.479Z,11.60
2017-10-10T18:31:34.963Z,11.60
2017-10-10T18:34:03.027Z,11.60
2017-10-10T18:36:31.059Z,11.60
2017-10-10T18:38:59.983Z,11.60
2017-10-10T18:41:29.013Z,11.60
2017-10-10T18:43:57.047Z,11.50
2017-10-10T18:46:25.086Z,11.50
2017-10-10T18:48:53.131Z,11.50
2017-10-10T18:51:21.939Z,11.50
2017-10-10T18:53:49.974Z,11.50
2017-10-10T18:56:18.019Z,11.50
2017-10-10T18:58:47.027Z,11.50
2017-10-10T19:01:17.047Z,11.50
2017-10-10T19:03:45.067Z,11.50
2017-10-10T19:06:14.019Z,11.50
2017-10-10T19:08:42.122Z,11.50
2017-10-10T19:11:10.112Z,11.50
2017-10-10T19:13:40.067Z,11.50
2017-10-10T19:16:08.114Z,11.50
2017-10-10T19:18:38.031Z,11.60
2017-10-10T19:21:06.031Z,11.50
2017-10-10T19:23:34.839Z,11.60
2017-10-10T19:26:02.863Z,11.60
2017-10-10T19:28:30.891Z,11.50
2017-10-10T19:30:59.947Z,11.60
2017-10-10T19:33:28.878Z,11.50
2017-10-10T19:35:56.922Z,11.50
2017-10-10T19:38:25.730Z,11.50
2017-10-10T19:40:53.762Z,11.50
2017-10-10T19:43:21.802Z,11.50
2017-10-10T19:45:50.842Z,11.50
2017-10-10T19:48:19.647Z,11.50
2017-10-10T19:50:47.678Z,11.40
2017-10-10T19:53:15.760Z,11.40
2017-10-10T19:55:43.808Z,11.40
2017-10-10T19:58:11.830Z,11.40
2017-10-10T20:00:41.418Z,11.40
2017-10-10T20:03:10.225Z,11.50
2017-10-10T20:05:38.257Z,11.50
2017-10-10T20:08:07.266Z,11.40
2017-10-10T20:10:37.042Z,11.50
2017-10-10T20:13:06.047Z,11.40
2017-10-10T20:15:36.074Z,11.50
2017-10-10T20:18:09.658Z,11.50
2017-10-10T20:20:37.682Z,11.40
2017-10-10T20:23:10.254Z,11.40
2017-10-10T20:25:40.249Z,11.30
2017-10-10T20:28:09.058Z,11.40
2017-10-10T20:30:37.094Z,11.30
2017-10-10T20:33:10.077Z,11.40
2017-10-10T20:35:39.058Z,11.40
2017-10-10T20:38:07.098Z,11.40
2017-10-10T20:40:36.130Z,11.40
2017-10-10T20:43:05.129Z,11.40
2017-10-10T20:45:33.933Z,11.50
2017-10-10T20:48:02.734Z,11.50
2017-10-10T20:50:30.769Z,11.50
2017-10-10T20:52:58.806Z,11.50
2017-10-10T20:55:26.858Z,11.50
2017-10-10T20:57:54.882Z,11.60
2017-10-10T21:00:23.854Z,11.60
2017-10-10T21:02:51.918Z,11.50
2017-10-10T21:05:23.594Z,11.50
2017-10-10T21:07:51.637Z,11.50
2017-10-10T21:10:19.685Z,11.50
2017-10-10T21:12:48.722Z,11.50
2017-10-10T21:15:16.765Z,11.50
2017-10-10T21:17:45.806Z,11.50
2017-10-10T21:20:13.833Z,11.50
2017-10-10T21:22:41.869Z,11.50
2017-10-10T21:25:09.918Z,11.50
2017-10-10T21:27:38.709Z,11.60
2017-10-10T21:30:07.505Z,11.60
2017-10-10T21:32:36.301Z,11.60
2017-10-10T21:35:04.329Z,11.60
2017-10-10T21:37:32.361Z,11.60
2017-10-10T21:40:00.413Z,11.60
2017-10-10T21:42:28.445Z,11.70
2017-10-10T21:44:56.477Z,11.70
2017-10-10T21:47:24.525Z,11.70
2017-10-10T21:49:52.585Z,11.70
2017-10-10T21:52:21.361Z,11.70
2017-10-10T21:54:51.162Z,11.70
2017-10-10T21:57:19.985Z,11.70
2017-10-10T21:59:48.921Z,11.70
2017-10-10T22:02:16.989Z,11.70
2017-10-10T22:04:45.006Z,11.70
2017-10-10T22:07:13.041Z,11.60
2017-10-10T22:09:42.033Z,11.70
2017-10-10T22:12:11.181Z,11.70
2017-10-10T22:14:40.121Z,11.70
2017-10-10T22:17:08.170Z,11.70
2017-10-10T22:19:38.121Z,11.60
2017-10-10T22:22:06.917Z,11.60
2017-10-10T22:24:36.709Z,11.60
2017-10-10T22:27:05.500Z,11.60
2017-10-10T22:29:35.293Z,11.60
2017-10-10T22:32:03.353Z,11.50
2017-10-10T22:34:32.364Z,11.60
2017-10-10T22:37:00.389Z,11.60
2017-10-10T22:39:28.429Z,11.60
2017-10-10T22:41:57.217Z,11.60
2017-10-10T22:44:26.992Z,11.60
2017-10-10T22:46:55.029Z,11.60
2017-10-10T22:49:23.053Z,11.60
2017-10-10T22:51:51.849Z,11.50
2017-10-10T22:54:22.617Z,11.50
2017-10-10T22:56:50.653Z,11.50
2017-10-10T22:59:20.437Z,11.50
2017-10-10T23:01:48.537Z,11.50
2017-10-10T23:04:17.332Z,11.50
2017-10-10T23:06:47.147Z,11.50
2017-10-10T23:09:15.140Z,11.50
2017-10-10T23:11:44.057Z,11.50
2017-10-10T23:14:12.084Z,11.50
2017-10-10T23:16:41.040Z,11.50
2017-10-10T23:19:10.017Z,11.50
2017-10-10T23:21:38.061Z,11.50
2017-10-10T23:24:07.132Z,11.50
2017-10-10T23:26:35.146Z,11.50
2017-10-10T23:29:04.145Z,11.50
2017-10-10T23:31:32.192Z,11.50
2017-10-10T23:34:00.232Z,11.50
2017-10-10T23:36:28.281Z,11.50
2017-10-10T23:38:57.252Z,11.50
2017-10-10T23:41:25.289Z,11.60
2017-10-10T23:43:53.293Z,11.50
2017-10-10T23:46:21.348Z,11.50
2017-10-10T23:48:49.369Z,11.50
2017-10-10T23:51:17.396Z,11.60
2017-10-10T23:53:46.436Z,11.60
2017-10-10T23:56:15.381Z,11.60
2017-10-10T23:58:43.401Z,11.60
